Time;durP1;ratioP1;P1;durP2;ratioP2;P2;SDS_P1;SDS_P2;PMS_P1;PMS_P2;Temp;Humidity;BMP_temperature;BMP_pressure;BME280_temperature;BME280_humidity;BME280_pressure;Samples;Min_cycle;Max_cycle;Signal;HPM_P1;HPM_P2
2024/02/22 00:01:37;;;;;;;1.60;1.47;;;16.90;39.10;;;;;;5006222;28;20936;-54
2024/02/22 00:04:03;;;;;;;1.90;1.70;;;17.00;38.60;;;;;;5005223;28;20437;-57
2024/02/22 00:06:29;;;;;;;2.90;1.67;;;17.00;38.30;;;;;;5002314;28;20225;-55
2024/02/22 00:08:55;;;;;;;1.60;1.50;;;16.90;39.00;;;;;;5006341;28;20947;-56
2024/02/22 00:11:20;;;;;;;1.90;1.70;;;16.50;39.30;;;;;;5005997;28;20213;-54
2024/02/22 00:13:46;;;;;;;1.70;1.60;;;16.30;39.80;;;;;;5003732;28;20589;-57
2024/02/22 00:16:15;;;;;;;4.23;2.00;;;16.10;40.10;;;;;;5005520;28;20221;-56
2024/02/22 00:18:41;;;;;;;2.47;1.80;;;15.80;40.40;;;;;;5004258;28;20189;-54
2024/02/22 00:21:08;;;;;;;1.90;1.80;;;15.70;41.20;;;;;;5008223;28;20448;-55
2024/02/22 00:23:34;;;;;;;1.60;1.50;;;15.70;41.30;;;;;;5009549;28;20441;-55
2024/02/22 00:26:00;;;;;;;2.40;1.50;;;15.70;41.70;;;;;;5009348;28;20480;-55
2024/02/22 00:28:25;;;;;;;2.03;1.93;;;15.70;42.30;;;;;;5003681;28;20312;-56
2024/02/22 00:30:51;;;;;;;1.80;1.23;;;15.80;42.60;;;;;;5004117;28;20646;-56
2024/02/22 00:33:16;;;;;;;1.93;1.83;;;15.60;42.50;;;;;;5009000;28;20185;-56
2024/02/22 00:35:42;;;;;;;1.90;1.77;;;15.30;42.80;;;;;;5006205;28;20249;-54
2024/02/22 00:38:08;;;;;;;4.17;2.20;;;15.30;43.20;;;;;;5011114;28;20204;-56
2024/02/22 00:40:34;;;;;;;2.07;1.83;;;15.10;43.40;;;;;;5004936;28;20244;-56
2024/02/22 00:42:59;;;;;;;3.77;1.83;;;15.00;43.80;;;;;;5011955;28;20267;-56
2024/02/22 00:45:25;;;;;;;5.03;1.57;;;15.00;44.00;;;;;;5005348;28;20566;-56
2024/02/22 00:47:50;;;;;;;2.13;1.77;;;15.10;44.10;;;;;;5007475;28;22040;-56
2024/02/22 00:50:16;;;;;;;5.20;1.20;;;15.40;44.30;;;;;;5008676;28;20865;-57
2024/02/22 00:52:42;;;;;;;1.87;1.50;;;15.50;44.10;;;;;;5008997;28;20182;-56
2024/02/22 00:55:08;;;;;;;2.53;1.70;;;15.60;44.00;;;;;;5010317;28;20213;-57
2024/02/22 00:57:33;;;;;;;1.87;1.77;;;15.50;43.90;;;;;;5007577;28;20743;-55
2024/02/22 00:59:59;;;;;;;2.40;1.60;;;15.60;44.00;;;;;;5004835;28;20424;-56
2024/02/22 01:02:26;;;;;;;1.33;1.23;;;15.50;44.00;;;;;;5005037;28;21019;-53
2024/02/22 01:04:52;;;;;;;3.30;1.70;;;15.50;44.00;;;;;;5004738;28;20201;-56
2024/02/22 01:07:17;;;;;;;2.47;1.70;;;15.50;44.40;;;;;;5005714;28;20976;-55
2024/02/22 01:09:43;;;;;;;1.63;1.50;;;15.50;44.80;;;;;;5006021;28;20522;-56
2024/02/22 01:12:09;;;;;;;3.00;1.57;;;15.30;45.20;;;;;;5006274;28;20411;-55
2024/02/22 01:14:34;;;;;;;2.70;1.77;;;15.30;46.30;;;;;;5010495;28;20201;-56
2024/02/22 01:17:00;;;;;;;2.10;1.50;;;15.00;46.90;;;;;;5011227;28;20218;-57
2024/02/22 01:19:25;;;;;;;2.50;1.93;;;14.50;48.00;;;;;;5011999;28;20189;-55
2024/02/22 01:21:51;;;;;;;3.50;1.83;;;14.70;48.70;;;;;;5011367;28;20284;-54
2024/02/22 01:24:16;;;;;;;1.43;1.33;;;14.60;49.10;;;;;;5007692;28;20185;-58
2024/02/22 01:26:42;;;;;;;2.20;1.73;;;14.50;49.40;;;;;;5009596;28;20599;-57
2024/02/22 01:29:08;;;;;;;1.83;1.60;;;14.50;49.80;;;;;;5007167;28;20189;-52
2024/02/22 01:31:34;;;;;;;7.10;1.73;;;14.30;50.20;;;;;;5003842;28;20805;-56
2024/02/22 01:33:59;;;;;;;1.90;1.70;;;14.40;50.70;;;;;;5002351;28;20244;-56
2024/02/22 01:36:25;;;;;;;2.20;1.80;;;14.20;50.80;;;;;;5005758;28;20465;-58
2024/02/22 01:38:50;;;;;;;1.83;1.50;;;14.20;51.00;;;;;;5002906;28;20657;-56
2024/02/22 01:41:16;;;;;;;3.50;1.80;;;14.40;51.20;;;;;;5002399;28;20194;-56
2024/02/22 01:43:42;;;;;;;3.07;1.73;;;14.20;51.30;;;;;;5003415;28;20178;-55
2024/02/22 01:46:08;;;;;;;3.43;1.87;;;14.30;51.90;;;;;;5003453;28;20226;-56
2024/02/22 01:48:34;;;;;;;2.47;1.60;;;14.20;51.80;;;;;;5001259;28;20525;-55
2024/02/22 01:51:00;;;;;;;1.50;1.40;;;14.20;52.00;;;;;;5004218;28;20920;-57
2024/02/22 01:53:28;;;;;;;3.93;1.60;;;14.20;52.30;;;;;;5002474;28;20197;-56
2024/02/22 01:55:58;;;;;;;1.80;1.63;;;14.40;52.80;;;;;;5003838;28;20450;-56
2024/02/22 01:58:34;;;;;;;2.40;1.70;;;14.10;52.40;;;;;;5001786;28;20445;-57
2024/02/22 02:01:02;;;;;;;1.63;1.53;;;14.10;53.00;;;;;;5003452;28;20535;-55
2024/02/22 02:03:29;;;;;;;4.80;2.00;;;14.20;53.00;;;;;;5002329;28;20520;-55
2024/02/22 02:05:59;;;;;;;2.13;2.00;;;14.20;52.80;;;;;;5002449;28;20480;-56
2024/02/22 02:08:25;;;;;;;1.50;1.40;;;14.20;53.10;;;;;;5001005;28;20444;-56
2024/02/22 02:10:50;;;;;;;2.57;2.37;;;14.10;53.10;;;;;;5005790;28;20500;-55
2024/02/22 02:13:16;;;;;;;1.87;1.50;;;14.30;53.40;;;;;;5008855;28;20190;-56
2024/02/22 02:15:42;;;;;;;2.40;1.80;;;14.40;53.40;;;;;;5005573;28;20206;-54
2024/02/22 02:18:08;;;;;;;1.70;1.60;;;14.40;53.60;;;;;;5008951;28;20190;-55
2024/02/22 02:20:50;;;;;;;2.93;1.70;;;14.10;53.60;;;;;;5003919;28;20964;-55
2024/02/22 02:23:25;;;;;;;1.90;1.60;;;14.10;54.70;;;;;;5007201;28;20658;-53
2024/02/22 02:25:51;;;;;;;1.67;1.40;;;14.10;54.80;;;;;;5009329;28;20472;-55
2024/02/22 02:28:16;;;;;;;2.43;1.67;;;13.90;54.90;;;;;;5006905;28;20433;-54
2024/02/22 02:30:42;;;;;;;1.60;1.50;;;13.80;55.20;;;;;;5003233;28;20570;-55
2024/02/22 02:33:07;;;;;;;1.73;1.57;;;13.80;55.40;;;;;;5008497;28;20189;-56
2024/02/22 02:35:37;;;;;;;2.53;1.57;;;13.70;55.80;;;;;;5009540;28;20186;-56
2024/02/22 02:38:09;;;;;;;1.33;1.23;;;13.80;56.00;;;;;;5005409;28;20211;-55
2024/02/22 02:40:35;;;;;;;2.77;1.77;;;13.80;56.00;;;;;;5003800;28;20782;-54
2024/02/22 02:43:00;;;;;;;3.93;1.47;;;13.80;55.80;;;;;;5005616;28;20439;-57
2024/02/22 02:45:26;;;;;;;2.30;1.60;;;13.90;55.80;;;;;;5002874;28;20225;-57
2024/02/22 02:47:52;;;;;;;2.90;1.40;;;13.90;56.10;;;;;;5004302;28;20201;-56
2024/02/22 02:50:18;;;;;;;1.50;1.40;;;13.70;56.20;;;;;;5007351;28;20228;-56
2024/02/22 02:52:43;;;;;;;1.40;1.13;;;13.60;56.60;;;;;;5003144;28;20562;-56
2024/02/22 02:55:12;;;;;;;1.97;1.40;;;13.60;56.90;;;;;;5008094;28;20193;-55
2024/02/22 02:57:38;;;;;;;1.63;1.23;;;13.60;57.20;;;;;;5004682;28;20394;-55
2024/02/22 03:00:08;;;;;;;1.50;1.40;;;13.50;57.10;;;;;;5005588;28;20475;-53
2024/02/22 03:02:34;;;;;;;1.17;1.07;;;13.70;57.10;;;;;;5005587;28;20193;-56
2024/02/22 03:04:59;;;;;;;1.40;1.30;;;13.40;57.30;;;;;;5008974;28;20805;-55
2024/02/22 03:07:25;;;;;;;2.00;1.20;;;13.30;57.90;;;;;;5006478;28;20214;-55
2024/02/22 03:09:51;;;;;;;1.30;1.20;;;13.30;58.10;;;;;;5003672;28;20186;-53
2024/02/22 03:12:17;;;;;;;2.13;1.20;;;13.40;58.30;;;;;;5002344;28;20917;-55
2024/02/22 03:14:43;;;;;;;1.23;1.03;;;13.50;58.30;;;;;;5003647;28;20457;-56
2024/02/22 03:17:08;;;;;;;1.23;1.13;;;13.60;58.20;;;;;;5005676;28;20292;-56
2024/02/22 03:19:34;;;;;;;1.27;1.10;;;13.70;58.10;;;;;;5006601;28;22558;-54
2024/02/22 03:22:00;;;;;;;1.50;1.20;;;13.50;58.30;;;;;;5004953;28;20201;-56
2024/02/22 03:24:26;;;;;;;1.30;1.10;;;13.60;58.60;;;;;;5005391;28;20324;-55
2024/02/22 03:26:53;;;;;;;1.33;1.23;;;13.60;58.80;;;;;;5002572;28;20303;-56
2024/02/22 03:29:19;;;;;;;1.23;1.13;;;13.60;59.20;;;;;;5007712;28;20196;-55
2024/02/22 03:31:45;;;;;;;1.50;1.40;;;13.40;59.40;;;;;;5005937;28;20447;-58
2024/02/22 03:34:11;;;;;;;1.23;1.13;;;13.40;59.90;;;;;;5003223;28;20279;-56
2024/02/22 03:36:41;;;;;;;1.80;1.33;;;13.50;59.90;;;;;;5003810;28;20452;-56
2024/02/22 03:39:12;;;;;;;1.37;1.20;;;13.50;59.80;;;;;;5008884;28;20428;-56
2024/02/22 03:41:38;;;;;;;1.47;1.37;;;13.60;59.60;;;;;;5003886;28;20540;-58
2024/02/22 03:44:04;;;;;;;1.50;1.20;;;13.70;59.50;;;;;;5000190;28;20454;-56
2024/02/22 03:46:30;;;;;;;1.73;1.40;;;13.80;59.40;;;;;;5004999;28;20481;-56
2024/02/22 03:48:55;;;;;;;1.07;1.00;;;13.90;59.10;;;;;;5005590;28;20431;-57
2024/02/22 03:51:22;;;;;;;1.23;0.87;;;13.70;59.10;;;;;;5009080;28;20213;-55
2024/02/22 03:53:48;;;;;;;1.17;1.07;;;13.70;59.60;;;;;;5004285;28;20189;-54
2024/02/22 03:56:14;;;;;;;1.13;1.03;;;13.90;59.30;;;;;;4998856;28;20468;-56
2024/02/22 03:58:39;;;;;;;1.40;1.30;;;13.80;58.80;;;;;;5002725;28;20461;-56
2024/02/22 04:01:05;;;;;;;2.20;1.17;;;13.80;59.50;;;;;;5004312;28;20209;-57
2024/02/22 04:03:31;;;;;;;1.70;1.33;;;13.60;60.70;;;;;;5001082;28;20186;-56
2024/02/22 04:05:57;;;;;;;2.90;1.40;;;13.80;61.30;;;;;;4999594;28;20222;-57
2024/02/22 04:08:23;;;;;;;1.37;1.20;;;13.50;61.90;;;;;;5000676;28;20996;-56
2024/02/22 04:10:48;;;;;;;2.83;1.47;;;13.60;62.90;;;;;;4999413;28;20203;-55
2024/02/22 04:13:14;;;;;;;1.23;1.13;;;13.70;62.70;;;;;;4998971;28;20551;-54
2024/02/22 04:15:39;;;;;;;2.60;1.37;;;13.80;63.00;;;;;;4999472;28;20202;-58
2024/02/22 04:18:05;;;;;;;2.43;1.60;;;13.90;63.00;;;;;;4998869;28;20283;-57
2024/02/22 04:20:31;;;;;;;1.20;1.10;;;13.80;62.80;;;;;;5000141;28;20221;-58
2024/02/22 04:22:56;;;;;;;1.57;1.37;;;13.80;63.20;;;;;;5000393;28;20586;-56
2024/02/22 04:25:22;;;;;;;1.57;1.20;;;13.90;63.00;;;;;;5000895;28;20241;-54
2024/02/22 04:27:47;;;;;;;1.30;1.20;;;13.90;63.30;;;;;;5005468;28;20614;-56
2024/02/22 04:30:14;;;;;;;2.70;1.30;;;14.10;63.10;;;;;;5002101;28;20289;-57
2024/02/22 04:32:39;;;;;;;1.43;1.33;;;14.00;62.40;;;;;;4999220;28;20194;-55
2024/02/22 04:35:06;;;;;;;1.20;1.10;;;13.80;63.40;;;;;;5003705;28;20444;-54
2024/02/22 04:37:32;;;;;;;1.10;1.00;;;13.90;63.50;;;;;;5004838;28;20693;-56
2024/02/22 04:39:58;;;;;;;1.27;1.17;;;13.90;62.80;;;;;;5004220;28;20450;-56
2024/02/22 04:42:23;;;;;;;1.10;1.00;;;13.90;63.50;;;;;;5005149;28;20437;-56
2024/02/22 04:44:49;;;;;;;1.20;1.07;;;13.90;63.60;;;;;;5006840;28;20195;-55
2024/02/22 04:47:14;;;;;;;1.13;1.03;;;13.80;63.90;;;;;;5005496;28;20222;-54
2024/02/22 04:49:40;;;;;;;4.90;1.40;;;13.80;64.60;;;;;;5006098;28;20242;-58
2024/02/22 04:52:05;;;;;;;1.20;1.10;;;13.80;65.40;;;;;;5006292;28;20183;-56
2024/02/22 04:54:32;;;;;;;1.23;1.13;;;13.70;65.20;;;;;;5005960;28;20178;-54
2024/02/22 04:56:58;;;;;;;1.20;1.03;;;13.60;65.90;;;;;;5005680;28;20209;-56
2024/02/22 04:59:23;;;;;;;1.37;1.20;;;13.70;65.70;;;;;;5004100;28;20440;-56
2024/02/22 05:01:49;;;;;;;1.30;1.20;;;13.70;65.50;;;;;;5006555;28;20816;-56
2024/02/22 05:04:15;;;;;;;2.13;1.30;;;13.70;65.80;;;;;;5007991;28;20186;-57
2024/02/22 05:06:41;;;;;;;1.03;0.93;;;13.60;66.20;;;;;;5006419;28;20217;-58
2024/02/22 05:09:06;;;;;;;1.17;1.10;;;13.70;66.40;;;;;;5006548;28;20472;-56
2024/02/22 05:11:32;;;;;;;1.13;1.13;;;13.70;66.10;;;;;;5009504;28;20467;-56
2024/02/22 05:13:59;;;;;;;1.20;1.10;;;13.60;66.10;;;;;;5008864;28;20653;-58
2024/02/22 05:16:25;;;;;;;1.53;1.23;;;13.50;66.80;;;;;;5008484;28;20777;-59
2024/02/22 05:18:52;;;;;;;1.20;1.10;;;13.40;67.50;;;;;;5010302;28;20475;-56
2024/02/22 05:21:17;;;;;;;1.30;1.20;;;13.40;68.30;;;;;;5003872;28;20487;-57
2024/02/22 05:23:44;;;;;;;1.20;1.07;;;13.50;67.90;;;;;;5003083;28;20201;-58
2024/02/22 05:26:10;;;;;;;1.20;1.10;;;13.50;68.10;;;;;;5002866;28;20221;-56
2024/02/22 05:28:35;;;;;;;1.37;1.20;;;13.30;68.70;;;;;;5003753;28;20805;-56
2024/02/22 05:31:03;;;;;;;0.70;0.70;;;13.40;69.40;;;;;;5003062;28;20186;-56
2024/02/22 05:33:29;;;;;;;1.03;0.93;;;13.50;69.60;;;;;;5003439;28;20198;-58
2024/02/22 05:35:54;;;;;;;1.40;1.30;;;13.50;70.10;;;;;;5004216;28;20468;-57
2024/02/22 05:38:20;;;;;;;1.30;1.20;;;13.50;70.60;;;;;;5010244;28;20213;-56
2024/02/22 05:40:45;;;;;;;1.20;1.07;;;13.50;70.60;;;;;;5010119;28;20227;-57
2024/02/22 05:43:11;;;;;;;1.20;1.07;;;13.40;71.10;;;;;;5003273;28;20182;-58
2024/02/22 05:45:45;;;;;;;1.40;1.30;;;13.50;71.00;;;;;;5005538;28;20385;-57
2024/02/22 05:48:10;;;;;;;1.90;1.30;;;13.40;71.20;;;;;;5005333;28;20190;-56
2024/02/22 05:50:36;;;;;;;1.50;1.30;;;13.40;71.60;;;;;;5009396;28;20427;-56
2024/02/22 05:53:02;;;;;;;2.07;1.40;;;13.50;71.90;;;;;;5010806;28;20273;-57
2024/02/22 05:55:28;;;;;;;1.30;1.20;;;13.50;71.90;;;;;;5008835;28;20228;-58
2024/02/22 05:57:54;;;;;;;1.50;1.40;;;13.30;72.20;;;;;;5010136;28;20278;-58
2024/02/22 06:00:19;;;;;;;2.40;1.47;;;13.30;72.70;;;;;;5011105;28;20178;-57
2024/02/22 06:02:45;;;;;;;2.10;1.40;;;13.30;73.10;;;;;;5008998;28;20923;-57
2024/02/22 06:05:10;;;;;;;1.30;1.20;;;13.30;73.30;;;;;;5007384;28;20236;-58
2024/02/22 06:07:36;;;;;;;1.80;1.70;;;13.30;73.20;;;;;;5002601;28;20654;-57
2024/02/22 06:10:02;;;;;;;4.97;1.30;;;13.40;73.50;;;;;;5003277;28;20190;-57
2024/02/22 06:12:29;;;;;;;2.77;1.40;;;13.40;73.10;;;;;;5001022;28;20272;-58
2024/02/22 06:14:55;;;;;;;1.60;1.30;;;13.40;73.30;;;;;;5002077;28;21949;-57
2024/02/22 06:17:21;;;;;;;2.43;1.30;;;13.50;73.30;;;;;;5002230;28;20474;-59
2024/02/22 06:19:47;;;;;;;1.27;1.17;;;13.40;73.30;;;;;;5003977;28;20744;-59
2024/02/22 06:22:13;;;;;;;1.33;1.17;;;13.30;73.70;;;;;;5002558;28;20249;-59
2024/02/22 06:24:38;;;;;;;1.50;1.40;;;13.30;73.40;;;;;;5004509;28;20449;-58
2024/02/22 06:27:04;;;;;;;1.90;1.17;;;13.30;73.80;;;;;;5003505;28;20349;-59
2024/02/22 06:29:30;;;;;;;1.13;1.10;;;13.30;74.10;;;;;;5005371;28;20240;-59
2024/02/22 06:31:56;;;;;;;1.10;1.00;;;13.20;74.00;;;;;;5002525;28;20666;-56
2024/02/22 06:34:21;;;;;;;1.27;1.17;;;13.20;74.20;;;;;;5004507;28;20444;-57
2024/02/22 06:36:47;;;;;;;1.17;1.00;;;13.20;74.30;;;;;;5005021;28;20221;-56
2024/02/22 06:39:13;;;;;;;1.30;1.20;;;13.30;74.60;;;;;;5010651;28;20214;-59
2024/02/22 06:41:38;;;;;;;0.93;0.93;;;13.30;74.00;;;;;;5004256;28;20190;-58
2024/02/22 06:44:04;;;;;;;1.90;0.90;;;13.20;74.20;;;;;;5007725;28;20209;-57
2024/02/22 06:46:29;;;;;;;1.40;1.13;;;13.20;75.00;;;;;;5007915;28;20236;-56
2024/02/22 06:48:55;;;;;;;1.00;0.90;;;13.20;74.90;;;;;;5007380;28;20222;-57
2024/02/22 06:51:21;;;;;;;0.90;0.90;;;13.20;76.40;;;;;;5007915;28;20209;-58
2024/02/22 06:53:47;;;;;;;3.03;1.70;;;13.10;75.70;;;;;;5007006;28;20221;-58
2024/02/22 06:56:13;;;;;;;1.77;1.67;;;13.10;76.00;;;;;;5008296;28;20472;-59
2024/02/22 06:58:39;;;;;;;2.10;1.90;;;13.10;76.10;;;;;;5009635;28;20575;-59
2024/02/22 07:01:05;;;;;;;1.70;1.33;;;13.30;75.90;;;;;;5007870;28;20487;-58
2024/02/22 07:03:30;;;;;;;1.10;0.90;;;13.20;75.80;;;;;;5013260;28;20654;-55
2024/02/22 07:05:56;;;;;;;1.07;0.87;;;13.20;76.20;;;;;;5008468;28;20224;-60
2024/02/22 07:08:21;;;;;;;0.93;0.93;;;13.20;75.70;;;;;;5006872;28;20182;-57
2024/02/22 07:10:47;;;;;;;1.10;1.00;;;13.20;75.60;;;;;;5009065;28;20566;-59
2024/02/22 07:13:13;;;;;;;1.10;1.00;;;13.20;75.40;;;;;;5012565;28;20552;-57
2024/02/22 07:15:38;;;;;;;1.07;1.00;;;13.10;75.00;;;;;;5007031;28;20217;-59
2024/02/22 07:18:04;;;;;;;1.90;1.17;;;13.10;75.80;;;;;;5007607;28;20457;-58
2024/02/22 07:20:31;;;;;;;1.50;1.07;;;13.10;75.80;;;;;;5009060;28;20193;-58
2024/02/22 07:22:57;;;;;;;1.30;1.20;;;13.10;75.90;;;;;;5006128;28;20424;-57
2024/02/22 07:25:23;;;;;;;1.70;1.20;;;13.10;76.00;;;;;;5008202;28;20487;-58
2024/02/22 07:27:50;;;;;;;1.77;1.20;;;13.10;76.20;;;;;;5002958;28;20299;-57
2024/02/22 07:30:16;;;;;;;4.43;1.13;;;13.10;76.20;;;;;;5006673;28;20579;-59
2024/02/22 07:32:42;;;;;;;1.20;1.10;;;13.10;76.50;;;;;;5006960;28;20491;-58
2024/02/22 07:35:08;;;;;;;1.87;1.10;;;13.20;76.90;;;;;;5012672;28;20508;-53
2024/02/22 07:37:34;;;;;;;1.37;1.27;;;13.10;75.80;;;;;;5005788;28;20205;-57
2024/02/22 07:40:00;;;;;;;1.20;0.90;;;13.20;75.70;;;;;;5005811;28;20446;-59
2024/02/22 07:42:25;;;;;;;1.20;0.93;;;13.10;75.80;;;;;;5005533;28;20227;-56
2024/02/22 07:44:51;;;;;;;1.67;1.20;;;13.10;76.70;;;;;;5009297;28;20446;-56
2024/02/22 07:47:17;;;;;;;1.27;1.17;;;13.30;76.20;;;;;;5014727;28;20224;-60
2024/02/22 07:49:43;;;;;;;1.10;1.00;;;13.40;75.80;;;;;;5006285;28;20702;-58
2024/02/22 07:52:08;;;;;;;1.20;1.07;;;13.40;75.30;;;;;;5012002;28;20309;-56
2024/02/22 07:54:34;;;;;;;3.13;1.17;;;13.10;75.60;;;;;;4999542;28;20558;-59
2024/02/22 07:56:59;;;;;;;1.43;1.03;;;13.30;76.10;;;;;;5013630;28;20306;-57
2024/02/22 07:59:25;;;;;;;4.23;1.43;;;13.20;75.50;;;;;;5011154;28;20189;-58
2024/02/22 08:01:50;;;;;;;5.97;1.10;;;13.30;75.60;;;;;;5011844;28;20449;-59
2024/02/22 08:04:16;;;;;;;2.47;1.20;;;13.40;75.40;;;;;;5015163;28;20713;-58
2024/02/22 08:06:42;;;;;;;1.07;0.80;;;13.40;75.00;;;;;;5013776;28;20585;-59
2024/02/22 08:09:07;;;;;;;1.33;1.23;;;13.40;74.80;;;;;;5005512;28;20236;-58
2024/02/22 08:11:33;;;;;;;1.47;1.20;;;13.40;74.50;;;;;;5014368;28;20174;-57
2024/02/22 08:13:59;;;;;;;1.00;0.83;;;13.50;74.70;;;;;;5006763;28;20178;-58
2024/02/22 08:16:25;;;;;;;1.10;1.00;;;13.50;74.50;;;;;;5006801;28;20253;-59
2024/02/22 08:18:50;;;;;;;0.70;0.70;;;13.40;74.50;;;;;;5005843;28;20461;-59
2024/02/22 08:21:19;;;;;;;0.90;0.90;;;13.30;74.40;;;;;;5007132;28;20182;-58
2024/02/22 08:23:44;;;;;;;0.80;0.80;;;13.30;74.60;;;;;;5007035;28;20186;-59
2024/02/22 08:26:10;;;;;;;6.43;0.90;;;13.50;74.00;;;;;;5009440;28;20468;-57
2024/02/22 08:28:36;;;;;;;1.73;0.80;;;13.60;73.20;;;;;;5004579;28;20182;-59
2024/02/22 08:31:01;;;;;;;1.60;1.00;;;13.60;73.40;;;;;;5002132;28;20273;-58
2024/02/22 08:33:29;;;;;;;0.80;0.80;;;13.50;74.00;;;;;;5006977;28;20186;-59
2024/02/22 08:35:56;;;;;;;1.13;0.80;;;13.50;73.40;;;;;;5008767;28;20236;-57
2024/02/22 08:38:22;;;;;;;0.80;0.80;;;13.50;73.80;;;;;;5007228;28;20441;-58
2024/02/22 08:40:48;;;;;;;2.00;0.73;;;13.70;74.10;;;;;;5011249;28;20495;-59
2024/02/22 08:43:14;;;;;;;0.60;0.60;;;13.60;73.10;;;;;;5008334;28;20440;-59
2024/02/22 08:45:40;;;;;;;2.10;0.80;;;13.50;73.70;;;;;;5010182;28;20665;-60
2024/02/22 08:48:06;;;;;;;1.00;0.70;;;13.40;73.40;;;;;;5007164;28;20472;-58
2024/02/22 08:50:32;;;;;;;0.90;0.80;;;13.40;74.10;;;;;;5011779;28;20189;-58
2024/02/22 08:52:57;;;;;;;0.67;0.63;;;13.40;74.00;;;;;;5009841;28;20452;-57
2024/02/22 08:55:24;;;;;;;1.03;0.80;;;13.30;73.70;;;;;;5011300;28;20337;-58
2024/02/22 08:57:50;;;;;;;1.07;0.70;;;13.50;74.00;;;;;;5009728;28;20216;-59
2024/02/22 09:00:19;;;;;;;0.80;0.73;;;13.50;74.60;;;;;;5019943;28;20440;-58
2024/02/22 09:02:45;;;;;;;1.23;0.77;;;13.40;74.10;;;;;;5012177;28;20388;-60
2024/02/22 09:05:11;;;;;;;0.80;0.70;;;13.50;73.80;;;;;;5008829;28;20448;-58
2024/02/22 09:07:37;;;;;;;0.60;0.60;;;13.70;74.00;;;;;;5006304;28;20980;-58
2024/02/22 09:10:06;;;;;;;0.80;0.63;;;13.60;73.20;;;;;;5011798;28;20190;-59
2024/02/22 09:12:32;;;;;;;1.20;1.07;;;13.60;73.20;;;;;;5010117;28;20269;-61
2024/02/22 09:14:58;;;;;;;0.70;0.70;;;13.50;73.00;;;;;;5007792;28;21074;-58
2024/02/22 09:17:23;;;;;;;2.80;2.23;;;13.60;73.90;;;;;;5008216;28;20478;-58
2024/02/22 09:19:49;;;;;;;1.20;0.93;;;13.70;73.40;;;;;;5005939;28;20186;-58
2024/02/22 09:22:15;;;;;;;0.80;0.50;;;13.70;73.10;;;;;;5003568;28;20194;-57
2024/02/22 09:24:48;;;;;;;1.17;0.60;;;13.80;72.00;;;;;;5011841;28;20944;-60
2024/02/22 09:27:14;;;;;;;0.73;0.60;;;13.80;72.00;;;;;;5011284;28;20228;-58
2024/02/22 09:29:40;;;;;;;1.20;0.80;;;13.80;72.00;;;;;;5010661;28;20433;-58
2024/02/22 09:32:06;;;;;;;0.93;0.67;;;13.90;71.80;;;;;;5008468;28;21095;-60
2024/02/22 09:34:38;;;;;;;1.07;0.67;;;13.80;71.30;;;;;;5008958;28;20879;-59
2024/02/22 09:37:05;;;;;;;0.70;0.63;;;13.80;71.60;;;;;;5009389;28;20971;-60
2024/02/22 09:39:31;;;;;;;0.70;0.70;;;13.80;71.60;;;;;;5004620;28;20453;-59
2024/02/22 09:41:58;;;;;;;0.60;0.60;;;13.80;71.50;;;;;;5009880;28;21286;-58
2024/02/22 09:44:25;;;;;;;0.60;0.50;;;13.80;71.60;;;;;;5006752;28;20441;-58
2024/02/22 09:46:53;;;;;;;0.97;0.73;;;13.90;71.40;;;;;;5008415;28;20487;-60
2024/02/22 09:49:20;;;;;;;0.60;0.60;;;13.80;71.90;;;;;;5004963;28;20425;-59
2024/02/22 09:51:49;;;;;;;1.17;0.73;;;13.90;71.70;;;;;;5006166;28;20444;-59
2024/02/22 09:54:15;;;;;;;0.90;0.63;;;14.10;71.70;;;;;;5008044;28;20464;-58
2024/02/22 09:56:44;;;;;;;1.27;0.63;;;14.00;71.50;;;;;;5008206;28;20453;-59
2024/02/22 09:59:14;;;;;;;0.50;0.50;;;14.10;71.80;;;;;;5010897;28;20563;-61
2024/02/22 10:01:40;;;;;;;0.60;0.50;;;14.10;71.60;;;;;;5010117;28;20778;-60
2024/02/22 10:04:13;;;;;;;0.87;0.87;;;14.10;72.00;;;;;;5008189;28;20417;-61
2024/02/22 10:06:39;;;;;;;6.77;2.80;;;14.10;71.80;;;;;;5007185;28;20484;-61
2024/02/22 10:09:08;;;;;;;3.13;1.90;;;14.00;71.50;;;;;;5010218;28;20689;-59
2024/02/22 10:11:36;;;;;;;0.80;0.70;;;14.00;71.80;;;;;;5008364;28;20449;-61
2024/02/22 10:14:02;;;;;;;0.80;0.67;;;13.90;72.10;;;;;;5009068;28;20453;-61
2024/02/22 10:16:28;;;;;;;0.70;0.67;;;13.80;71.60;;;;;;5008673;28;20477;-58
2024/02/22 10:19:01;;;;;;;0.70;0.70;;;13.90;72.90;;;;;;5007977;28;20185;-60
2024/02/22 10:21:28;;;;;;;0.70;0.60;;;14.10;72.40;;;;;;5008423;28;20446;-58
2024/02/22 10:23:55;;;;;;;0.70;0.70;;;14.20;71.90;;;;;;5009098;28;20491;-59
2024/02/22 10:26:20;;;;;;;0.70;0.70;;;14.20;71.40;;;;;;5009254;28;21026;-60
2024/02/22 10:28:56;;;;;;;0.50;0.40;;;14.40;71.50;;;;;;5008955;28;20508;-60
2024/02/22 10:31:22;;;;;;;0.67;0.67;;;14.40;70.20;;;;;;5006132;28;20181;-60
2024/02/22 10:33:48;;;;;;;0.70;0.70;;;14.30;69.70;;;;;;5006758;28;20444;-58
2024/02/22 10:36:15;;;;;;;0.53;0.53;;;14.20;70.20;;;;;;5009705;28;20948;-58
2024/02/22 10:38:42;;;;;;;1.57;0.60;;;14.20;70.50;;;;;;5006868;28;20178;-59
2024/02/22 10:41:10;;;;;;;0.70;0.70;;;14.30;70.50;;;;;;5007985;28;20421;-60
2024/02/22 10:43:42;;;;;;;0.60;0.60;;;14.50;70.10;;;;;;5010241;28;20853;-60
2024/02/22 10:46:12;;;;;;;0.63;0.63;;;14.50;69.90;;;;;;5005818;28;20519;-60
2024/02/22 10:48:44;;;;;;;0.50;0.50;;;14.60;69.30;;;;;;5006349;28;20439;-59
2024/02/22 10:51:10;;;;;;;0.60;0.60;;;14.40;69.70;;;;;;5010174;28;20417;-57
2024/02/22 10:53:39;;;;;;;0.50;0.50;;;14.40;70.30;;;;;;5007946;28;20868;-60
2024/02/22 10:56:06;;;;;;;0.60;0.53;;;14.50;70.30;;;;;;5008743;28;20441;-59
2024/02/22 10:58:34;;;;;;;0.93;0.80;;;14.30;69.40;;;;;;5005917;28;20799;-59
2024/02/22 11:01:06;;;;;;;0.80;0.80;;;14.30;71.10;;;;;;5008427;28;20456;-61
2024/02/22 11:03:33;;;;;;;0.60;0.60;;;14.40;70.90;;;;;;5007130;28;20796;-59
2024/02/22 11:06:03;;;;;;;0.60;0.50;;;14.40;70.10;;;;;;5006840;28;20468;-60
2024/02/22 11:08:30;;;;;;;0.70;0.60;;;14.40;70.90;;;;;;5009496;28;20431;-60
2024/02/22 11:11:07;;;;;;;1.03;0.67;;;14.40;71.40;;;;;;5009515;28;20524;-61
2024/02/22 11:13:35;;;;;;;1.07;0.70;;;14.40;71.60;;;;;;5005118;28;20432;-60
2024/02/22 11:16:17;;;;;;;0.60;0.60;;;14.50;71.30;;;;;;5008924;28;20468;-58
2024/02/22 11:18:42;;;;;;;0.60;0.60;;;14.40;71.50;;;;;;5004264;28;20418;-61
2024/02/22 11:21:12;;;;;;;0.97;0.50;;;14.50;72.10;;;;;;5009921;28;20920;-59
2024/02/22 11:23:39;;;;;;;0.93;0.63;;;14.50;71.60;;;;;;5006930;28;20186;-58
2024/02/22 11:26:04;;;;;;;0.60;0.60;;;14.60;72.10;;;;;;5005805;28;20474;-60
2024/02/22 11:28:30;;;;;;;1.17;0.80;;;14.40;71.80;;;;;;5008427;28;20433;-60
2024/02/22 11:30:57;;;;;;;1.37;0.93;;;14.50;72.80;;;;;;5007606;28;20186;-60
2024/02/22 11:33:23;;;;;;;0.60;0.50;;;14.50;72.50;;;;;;5006489;28;20269;-61
2024/02/22 11:35:55;;;;;;;0.80;0.60;;;14.30;72.20;;;;;;5009855;28;20428;-61
2024/02/22 11:38:20;;;;;;;0.87;0.63;;;14.40;73.50;;;;;;5003844;28;20186;-60
2024/02/22 11:40:46;;;;;;;0.50;0.50;;;14.40;73.00;;;;;;5006984;28;20525;-58
2024/02/22 11:43:11;;;;;;;0.60;0.60;;;14.30;74.30;;;;;;5008879;28;20178;-59
2024/02/22 11:45:38;;;;;;;1.20;0.63;;;14.30;74.20;;;;;;5003745;28;20682;-58
2024/02/22 11:48:05;;;;;;;0.70;0.60;;;14.30;74.50;;;;;;5003727;28;20210;-59
2024/02/22 11:50:32;;;;;;;0.60;0.60;;;14.30;74.10;;;;;;5006724;28;20424;-59
2024/02/22 11:52:58;;;;;;;0.70;0.60;;;14.30;74.00;;;;;;5007163;28;20436;-60
2024/02/22 11:55:24;;;;;;;0.50;0.50;;;14.40;74.00;;;;;;5007290;28;20913;-58
2024/02/22 11:57:50;;;;;;;0.60;0.60;;;14.50;73.40;;;;;;5003777;28;20460;-58
2024/02/22 12:00:16;;;;;;;0.80;0.70;;;14.40;73.80;;;;;;5006030;28;20456;-60
2024/02/22 12:02:43;;;;;;;1.60;0.60;;;14.50;73.90;;;;;;5009274;28;20673;-60
2024/02/22 12:05:10;;;;;;;1.13;0.97;;;14.40;73.10;;;;;;5006644;28;20418;-58
2024/02/22 12:07:38;;;;;;;0.50;0.50;;;14.40;73.40;;;;;;5005602;28;20546;-60
2024/02/22 12:10:05;;;;;;;0.70;0.60;;;14.50;74.70;;;;;;5006337;28;20466;-60
2024/02/22 12:12:31;;;;;;;0.70;0.70;;;14.40;74.40;;;;;;5007548;28;20773;-58
2024/02/22 12:15:04;;;;;;;0.60;0.60;;;14.50;73.70;;;;;;5008272;28;20456;-59
2024/02/22 12:17:34;;;;;;;0.90;0.70;;;14.50;73.50;;;;;;5008123;28;20485;-58
2024/02/22 12:20:00;;;;;;;0.80;0.70;;;14.40;72.70;;;;;;5010141;28;20424;-60
2024/02/22 12:22:32;;;;;;;0.70;0.60;;;14.50;72.80;;;;;;5012063;28;20419;-59
2024/02/22 12:24:58;;;;;;;0.60;0.60;;;14.50;71.20;;;;;;5011362;28;20436;-61
2024/02/22 12:27:25;;;;;;;0.80;0.70;;;14.30;70.90;;;;;;5007922;28;20983;-59
2024/02/22 12:29:51;;;;;;;0.67;0.67;;;14.40;71.40;;;;;;5014624;28;20440;-59
2024/02/22 12:32:17;;;;;;;1.33;0.50;;;14.60;71.80;;;;;;5012165;28;20452;-60
2024/02/22 12:34:43;;;;;;;0.73;0.67;;;14.60;69.60;;;;;;5009864;28;20205;-59
2024/02/22 12:37:08;;;;;;;0.70;0.60;;;14.40;69.10;;;;;;5015776;28;20444;-58
2024/02/22 12:39:34;;;;;;;0.60;0.60;;;14.50;69.40;;;;;;5014489;28;20265;-58
2024/02/22 12:42:00;;;;;;;0.60;0.50;;;14.50;69.10;;;;;;5011600;28;20712;-60
2024/02/22 12:44:26;;;;;;;0.57;0.57;;;14.60;69.40;;;;;;5007493;28;20194;-60